Airfield :
LOGIN :

Register | Disclaimer

   EN    FR    IT 

 










Legend :    VFR   Marginal VFR   IFR   Intensive IFR   Very Intensive IFR
Visi :
Ceiling :
>= 8 km
>= 3000ft
5 to 8 km
1000 to 3000 ft
1500m to 5 km
500 to 1000 ft
800 to 1500m
200 to 500 ft
< 800m
< 200 ft
Symbols :   Thunderstorms  Fog  Heavy snow  Heavy precipitations  Wind > 20 kt
SIGMETs :     Misc.  Thunderstorms  Icing  Turbulence  Mountain Waves  Volcanic Ashes







- Airport Elevation : 7 ft
- IATA code : VCE


LIPZ - Marco Polo Int. Venezia

CURRENT METAR :
  • 221150Z 06021KT 9999 SCT010 BKN040 03/01 Q1009 TEMPO 06022G32KT

EXPIRED METARs :
  • 221120Z 06019KT 9999 -RA SCT008 BKN020 03/02 Q1009 TEMPO 06022G32KT
  • 221050Z 06021KT 9000 -RA BKN010 BKN030 03/01 Q1009 TEMPO 06022G32KT
  • 221020Z 06023KT 9999 -RA BKN013 BKN030 03/01 Q1008 TEMPO 06022G32KT
  • 220950Z 05022KT 9000 -RA BKN014 BKN030 04/01 Q1008 TEMPO 06022G32KT
  • 220920Z 05021KT 9999 -RA BKN013 BKN030 04/02 Q1008 TEMPO 06022G32KT

TAF TAF LIPZ
Valid from the 22 at 12:00 until the 23 at 18:00 UTC


221100Z 2212/2318 05022G32KT 6000 RA BKN012 BKN050
BECMG 2217/2219 04018KT
No reported NOTAMs for that airfield.



MET'MAP, your aeronautical weather chart ! - Copyright ORBIFLY December 2007 - Disclaimer

ORBIFLY MET'MAP TEAM :

Programming & Development : Alexandra Zaïnal
Concept & Development : Baudouin d'Aumeries
Co-Development & Prog : Marc-Olivier Méhu
Technical & hardware support : Manuel Goepfert

Contact : metmap@orbifly.com




SOURCES & CREDITS :

   NOAA